sensor_id;sensor_type;location;lat;lon;timestamp;P1;durP1;ratioP1;P2;durP2;ratioP2
26335;SDS011;14047;50.936;4.654;2022-10-13T00:00:42;19.38;;;9.50;;
26335;SDS011;14047;50.936;4.654;2022-10-13T00:03:11;16.08;;;8.95;;
26335;SDS011;14047;50.936;4.654;2022-10-13T00:05:41;18.15;;;8.52;;
26335;SDS011;14047;50.936;4.654;2022-10-13T00:08:08;23.58;;;9.43;;
26335;SDS011;14047;50.936;4.654;2022-10-13T00:10:35;20.23;;;10.18;;
26335;SDS011;14047;50.936;4.654;2022-10-13T00:13:03;21.77;;;9.07;;
26335;SDS011;14047;50.936;4.654;2022-10-13T00:15:29;20.65;;;9.05;;
26335;SDS011;14047;50.936;4.654;2022-10-13T00:17:55;19.27;;;9.20;;
26335;SDS011;14047;50.936;4.654;2022-10-13T00:20:20;18.92;;;9.65;;
26335;SDS011;14047;50.936;4.654;2022-10-13T00:22:46;20.25;;;9.55;;
26335;SDS011;14047;50.936;4.654;2022-10-13T00:25:11;19.77;;;9.32;;
26335;SDS011;14047;50.936;4.654;2022-10-13T00:27:37;23.70;;;9.75;;
26335;SDS011;14047;50.936;4.654;2022-10-13T00:30:03;17.60;;;9.82;;
26335;SDS011;14047;50.936;4.654;2022-10-13T00:32:29;21.48;;;10.00;;
26335;SDS011;14047;50.936;4.654;2022-10-13T00:34:55;24.05;;;9.23;;
26335;SDS011;14047;50.936;4.654;2022-10-13T00:37:21;23.77;;;9.30;;
26335;SDS011;14047;50.936;4.654;2022-10-13T00:39:48;25.33;;;10.07;;
26335;SDS011;14047;50.936;4.654;2022-10-13T00:42:13;22.83;;;8.95;;
26335;SDS011;14047;50.936;4.654;2022-10-13T00:47:34;22.98;;;10.25;;
26335;SDS011;14047;50.936;4.654;2022-10-13T00:50:06;27.10;;;9.90;;
26335;SDS011;14047;50.936;4.654;2022-10-13T00:52:35;26.40;;;9.48;;
26335;SDS011;14047;50.936;4.654;2022-10-13T00:55:03;23.27;;;10.43;;
26335;SDS011;14047;50.936;4.654;2022-10-13T00:57:31;27.67;;;9.65;;
26335;SDS011;14047;50.936;4.654;2022-10-13T00:59:57;29.67;;;9.60;;
26335;SDS011;14047;50.936;4.654;2022-10-13T01:02:26;25.98;;;9.95;;
26335;SDS011;14047;50.936;4.654;2022-10-13T01:04:56;24.27;;;9.50;;
26335;SDS011;14047;50.936;4.654;2022-10-13T01:07:23;26.42;;;9.65;;
26335;SDS011;14047;50.936;4.654;2022-10-13T01:09:48;25.90;;;9.63;;
26335;SDS011;14047;50.936;4.654;2022-10-13T01:15:02;22.25;;;9.43;;
26335;SDS011;14047;50.936;4.654;2022-10-13T01:28:51;28.65;;;9.30;;
26335;SDS011;14047;50.936;4.654;2022-10-13T01:31:55;26.38;;;9.77;;
26335;SDS011;14047;50.936;4.654;2022-10-13T01:37:21;20.80;;;9.00;;
26335;SDS011;14047;50.936;4.654;2022-10-13T01:42:49;23.50;;;9.82;;
26335;SDS011;14047;50.936;4.654;2022-10-13T01:46:21;25.20;;;9.50;;
26335;SDS011;14047;50.936;4.654;2022-10-13T01:48:43;27.52;;;9.98;;
26335;SDS011;14047;50.936;4.654;2022-10-13T01:51:11;25.13;;;9.48;;
26335;SDS011;14047;50.936;4.654;2022-10-13T01:53:39;33.88;;;9.68;;
26335;SDS011;14047;50.936;4.654;2022-10-13T01:56:06;20.92;;;9.05;;
26335;SDS011;14047;50.936;4.654;2022-10-13T01:58:33;26.45;;;10.43;;
26335;SDS011;14047;50.936;4.654;2022-10-13T02:01:13;29.33;;;9.88;;
26335;SDS011;14047;50.936;4.654;2022-10-13T02:09:13;26.52;;;10.00;;
26335;SDS011;14047;50.936;4.654;2022-10-13T02:11:46;28.88;;;9.50;;
26335;SDS011;14047;50.936;4.654;2022-10-13T02:14:29;31.33;;;8.70;;
26335;SDS011;14047;50.936;4.654;2022-10-13T02:16:59;24.38;;;9.10;;
26335;SDS011;14047;50.936;4.654;2022-10-13T02:19:26;20.17;;;9.43;;
26335;SDS011;14047;50.936;4.654;2022-10-13T02:21:54;23.70;;;8.95;;
26335;SDS011;14047;50.936;4.654;2022-10-13T02:24:21;26.52;;;8.95;;
26335;SDS011;14047;50.936;4.654;2022-10-13T02:26:47;19.42;;;8.35;;
26335;SDS011;14047;50.936;4.654;2022-10-13T02:29:13;24.83;;;9.98;;
26335;SDS011;14047;50.936;4.654;2022-10-13T02:31:41;19.80;;;9.43;;
26335;SDS011;14047;50.936;4.654;2022-10-13T02:34:08;22.60;;;9.45;;
26335;SDS011;14047;50.936;4.654;2022-10-13T02:36:34;25.13;;;10.43;;
26335;SDS011;14047;50.936;4.654;2022-10-13T02:39:02;25.92;;;9.60;;
26335;SDS011;14047;50.936;4.654;2022-10-13T02:41:29;22.38;;;9.00;;
26335;SDS011;14047;50.936;4.654;2022-10-13T02:43:55;21.10;;;8.43;;
26335;SDS011;14047;50.936;4.654;2022-10-13T02:46:21;21.95;;;9.70;;
26335;SDS011;14047;50.936;4.654;2022-10-13T02:48:46;24.38;;;9.55;;
26335;SDS011;14047;50.936;4.654;2022-10-13T02:51:12;19.63;;;9.32;;
26335;SDS011;14047;50.936;4.654;2022-10-13T02:53:37;28.25;;;10.27;;
26335;SDS011;14047;50.936;4.654;2022-10-13T02:56:03;26.13;;;10.23;;
26335;SDS011;14047;50.936;4.654;2022-10-13T02:58:29;23.25;;;10.55;;
26335;SDS011;14047;50.936;4.654;2022-10-13T03:01:03;19.33;;;9.70;;
26335;SDS011;14047;50.936;4.654;2022-10-13T03:03:32;20.73;;;9.13;;
26335;SDS011;14047;50.936;4.654;2022-10-13T03:05:58;24.17;;;8.93;;
26335;SDS011;14047;50.936;4.654;2022-10-13T03:08:24;23.55;;;9.45;;
26335;SDS011;14047;50.936;4.654;2022-10-13T03:10:50;19.05;;;9.23;;
26335;SDS011;14047;50.936;4.654;2022-10-13T03:13:16;20.88;;;9.77;;
26335;SDS011;14047;50.936;4.654;2022-10-13T03:15:42;21.75;;;9.30;;
26335;SDS011;14047;50.936;4.654;2022-10-13T03:18:07;23.85;;;10.10;;
26335;SDS011;14047;50.936;4.654;2022-10-13T03:20:33;24.52;;;10.05;;
26335;SDS011;14047;50.936;4.654;2022-10-13T03:22:59;23.25;;;10.00;;
26335;SDS011;14047;50.936;4.654;2022-10-13T03:25:24;18.77;;;9.95;;
26335;SDS011;14047;50.936;4.654;2022-10-13T03:27:50;24.17;;;10.48;;
26335;SDS011;14047;50.936;4.654;2022-10-13T03:30:16;20.48;;;9.57;;
26335;SDS011;14047;50.936;4.654;2022-10-13T03:32:41;28.60;;;10.75;;
26335;SDS011;14047;50.936;4.654;2022-10-13T03:35:07;26.83;;;11.35;;
26335;SDS011;14047;50.936;4.654;2022-10-13T03:37:33;22.95;;;10.60;;
26335;SDS011;14047;50.936;4.654;2022-10-13T03:39:58;21.25;;;10.32;;
26335;SDS011;14047;50.936;4.654;2022-10-13T03:42:24;21.50;;;10.55;;
26335;SDS011;14047;50.936;4.654;2022-10-13T03:44:49;23.90;;;10.63;;
26335;SDS011;14047;50.936;4.654;2022-10-13T03:47:15;24.95;;;10.73;;
26335;SDS011;14047;50.936;4.654;2022-10-13T03:49:41;29.42;;;10.52;;
26335;SDS011;14047;50.936;4.654;2022-10-13T03:52:06;21.67;;;11.38;;
26335;SDS011;14047;50.936;4.654;2022-10-13T03:54:32;23.45;;;10.70;;
26335;SDS011;14047;50.936;4.654;2022-10-13T03:56:58;30.95;;;11.25;;
26335;SDS011;14047;50.936;4.654;2022-10-13T03:59:23;25.33;;;10.77;;
26335;SDS011;14047;50.936;4.654;2022-10-13T04:01:49;23.90;;;10.85;;
26335;SDS011;14047;50.936;4.654;2022-10-13T04:04:15;25.00;;;10.23;;
26335;SDS011;14047;50.936;4.654;2022-10-13T04:06:40;22.90;;;10.77;;
26335;SDS011;14047;50.936;4.654;2022-10-13T04:09:06;22.63;;;9.82;;
26335;SDS011;14047;50.936;4.654;2022-10-13T04:11:32;22.35;;;10.35;;
26335;SDS011;14047;50.936;4.654;2022-10-13T04:13:58;23.38;;;9.45;;
26335;SDS011;14047;50.936;4.654;2022-10-13T04:16:24;21.20;;;10.32;;
26335;SDS011;14047;50.936;4.654;2022-10-13T04:18:55;27.58;;;10.52;;
26335;SDS011;14047;50.936;4.654;2022-10-13T04:21:26;24.10;;;9.85;;
26335;SDS011;14047;50.936;4.654;2022-10-13T04:23:53;25.23;;;10.25;;
26335;SDS011;14047;50.936;4.654;2022-10-13T04:26:21;22.60;;;9.77;;
26335;SDS011;14047;50.936;4.654;2022-10-13T04:28:48;24.55;;;10.60;;
26335;SDS011;14047;50.936;4.654;2022-10-13T04:31:15;24.60;;;10.43;;
26335;SDS011;14047;50.936;4.654;2022-10-13T04:33:41;22.73;;;10.50;;
26335;SDS011;14047;50.936;4.654;2022-10-13T04:36:07;21.55;;;10.57;;
26335;SDS011;14047;50.936;4.654;2022-10-13T04:38:35;23.90;;;10.63;;
26335;SDS011;14047;50.936;4.654;2022-10-13T04:41:04;26.50;;;11.02;;
26335;SDS011;14047;50.936;4.654;2022-10-13T04:43:31;23.17;;;10.75;;
26335;SDS011;14047;50.936;4.654;2022-10-13T04:46:01;24.05;;;11.27;;
26335;SDS011;14047;50.936;4.654;2022-10-13T04:48:28;28.15;;;11.68;;
26335;SDS011;14047;50.936;4.654;2022-10-13T04:50:58;22.38;;;10.43;;
26335;SDS011;14047;50.936;4.654;2022-10-13T04:53:28;18.33;;;10.63;;
26335;SDS011;14047;50.936;4.654;2022-10-13T04:55:55;25.17;;;10.70;;
26335;SDS011;14047;50.936;4.654;2022-10-13T04:58:21;23.08;;;9.60;;
26335;SDS011;14047;50.936;4.654;2022-10-13T05:00:47;27.90;;;11.27;;
26335;SDS011;14047;50.936;4.654;2022-10-13T05:03:12;30.17;;;10.68;;
26335;SDS011;14047;50.936;4.654;2022-10-13T05:05:38;26.38;;;10.57;;
26335;SDS011;14047;50.936;4.654;2022-10-13T05:08:04;27.75;;;10.85;;
26335;SDS011;14047;50.936;4.654;2022-10-13T05:10:30;23.45;;;10.27;;
26335;SDS011;14047;50.936;4.654;2022-10-13T05:12:56;19.77;;;10.00;;
26335;SDS011;14047;50.936;4.654;2022-10-13T05:15:21;24.08;;;10.55;;
26335;SDS011;14047;50.936;4.654;2022-10-13T05:17:47;25.08;;;9.82;;
26335;SDS011;14047;50.936;4.654;2022-10-13T05:20:13;20.88;;;10.25;;
26335;SDS011;14047;50.936;4.654;2022-10-13T05:22:41;18.23;;;9.60;;
26335;SDS011;14047;50.936;4.654;2022-10-13T05:25:07;21.42;;;9.93;;
26335;SDS011;14047;50.936;4.654;2022-10-13T05:27:33;23.75;;;9.00;;
26335;SDS011;14047;50.936;4.654;2022-10-13T05:29:59;24.02;;;10.15;;
26335;SDS011;14047;50.936;4.654;2022-10-13T05:32:24;20.50;;;9.57;;
26335;SDS011;14047;50.936;4.654;2022-10-13T05:34:50;26.20;;;10.10;;
26335;SDS011;14047;50.936;4.654;2022-10-13T05:37:15;21.95;;;9.10;;
26335;SDS011;14047;50.936;4.654;2022-10-13T05:39:42;21.15;;;9.57;;
26335;SDS011;14047;50.936;4.654;2022-10-13T05:42:08;18.63;;;9.40;;
26335;SDS011;14047;50.936;4.654;2022-10-13T05:44:34;17.55;;;9.10;;
26335;SDS011;14047;50.936;4.654;2022-10-13T05:47:01;19.70;;;10.45;;
26335;SDS011;14047;50.936;4.654;2022-10-13T05:49:27;28.83;;;10.40;;
26335;SDS011;14047;50.936;4.654;2022-10-13T05:51:54;29.38;;;11.55;;
26335;SDS011;14047;50.936;4.654;2022-10-13T05:57:03;22.90;;;10.70;;
26335;SDS011;14047;50.936;4.654;2022-10-13T05:59:36;23.33;;;10.57;;
26335;SDS011;14047;50.936;4.654;2022-10-13T06:02:07;20.38;;;10.02;;
26335;SDS011;14047;50.936;4.654;2022-10-13T06:04:46;28.65;;;9.82;;
26335;SDS011;14047;50.936;4.654;2022-10-13T06:07:14;19.13;;;9.63;;
26335;SDS011;14047;50.936;4.654;2022-10-13T06:09:40;26.60;;;9.63;;
26335;SDS011;14047;50.936;4.654;2022-10-13T06:12:07;26.75;;;10.75;;
26335;SDS011;14047;50.936;4.654;2022-10-13T06:14:33;22.05;;;9.55;;
26335;SDS011;14047;50.936;4.654;2022-10-13T06:16:59;26.55;;;10.15;;
26335;SDS011;14047;50.936;4.654;2022-10-13T06:19:24;17.98;;;9.52;;
26335;SDS011;14047;50.936;4.654;2022-10-13T06:21:50;17.88;;;9.95;;
26335;SDS011;14047;50.936;4.654;2022-10-13T06:24:16;20.73;;;10.85;;
26335;SDS011;14047;50.936;4.654;2022-10-13T06:26:42;19.20;;;9.98;;
26335;SDS011;14047;50.936;4.654;2022-10-13T06:29:07;22.23;;;9.88;;
26335;SDS011;14047;50.936;4.654;2022-10-13T06:31:33;21.00;;;9.90;;
26335;SDS011;14047;50.936;4.654;2022-10-13T06:33:59;22.67;;;10.07;;
26335;SDS011;14047;50.936;4.654;2022-10-13T06:36:24;24.08;;;11.18;;
26335;SDS011;14047;50.936;4.654;2022-10-13T06:38:50;22.00;;;10.27;;
26335;SDS011;14047;50.936;4.654;2022-10-13T06:41:16;20.55;;;10.18;;
26335;SDS011;14047;50.936;4.654;2022-10-13T06:43:42;22.42;;;10.60;;
26335;SDS011;14047;50.936;4.654;2022-10-13T06:46:08;22.67;;;11.23;;
26335;SDS011;14047;50.936;4.654;2022-10-13T06:48:34;26.40;;;11.07;;
26335;SDS011;14047;50.936;4.654;2022-10-13T06:51:04;20.88;;;10.02;;
26335;SDS011;14047;50.936;4.654;2022-10-13T06:53:31;18.10;;;9.68;;
26335;SDS011;14047;50.936;4.654;2022-10-13T06:55:57;21.63;;;9.45;;
26335;SDS011;14047;50.936;4.654;2022-10-13T06:58:24;23.60;;;10.10;;
26335;SDS011;14047;50.936;4.654;2022-10-13T07:00:50;19.27;;;10.13;;
26335;SDS011;14047;50.936;4.654;2022-10-13T07:03:16;20.58;;;9.38;;
26335;SDS011;14047;50.936;4.654;2022-10-13T07:05:42;18.60;;;9.27;;
26335;SDS011;14047;50.936;4.654;2022-10-13T07:08:07;21.90;;;9.30;;
26335;SDS011;14047;50.936;4.654;2022-10-13T07:10:33;18.77;;;8.68;;
26335;SDS011;14047;50.936;4.654;2022-10-13T07:13:01;27.77;;;9.40;;
26335;SDS011;14047;50.936;4.654;2022-10-13T07:15:27;20.15;;;8.85;;
26335;SDS011;14047;50.936;4.654;2022-10-13T07:17:52;18.30;;;8.40;;
26335;SDS011;14047;50.936;4.654;2022-10-13T07:20:22;26.85;;;9.25;;
26335;SDS011;14047;50.936;4.654;2022-10-13T07:22:48;18.67;;;8.52;;
26335;SDS011;14047;50.936;4.654;2022-10-13T07:25:16;16.50;;;8.30;;
26335;SDS011;14047;50.936;4.654;2022-10-13T07:27:42;19.42;;;8.90;;
26335;SDS011;14047;50.936;4.654;2022-10-13T07:30:08;17.75;;;8.77;;
26335;SDS011;14047;50.936;4.654;2022-10-13T07:32:34;15.32;;;8.80;;
26335;SDS011;14047;50.936;4.654;2022-10-13T07:35:00;15.32;;;8.32;;
26335;SDS011;14047;50.936;4.654;2022-10-13T07:37:27;17.23;;;8.43;;
26335;SDS011;14047;50.936;4.654;2022-10-13T07:39:53;20.13;;;8.88;;
26335;SDS011;14047;50.936;4.654;2022-10-13T07:42:18;15.27;;;8.80;;
26335;SDS011;14047;50.936;4.654;2022-10-13T07:44:44;21.45;;;8.18;;
26335;SDS011;14047;50.936;4.654;2022-10-13T07:47:10;24.33;;;8.57;;
26335;SDS011;14047;50.936;4.654;2022-10-13T07:49:35;17.90;;;8.63;;
26335;SDS011;14047;50.936;4.654;2022-10-13T07:52:01;20.58;;;8.07;;
26335;SDS011;14047;50.936;4.654;2022-10-13T07:54:27;17.52;;;8.38;;
26335;SDS011;14047;50.936;4.654;2022-10-13T07:56:53;18.30;;;8.90;;
26335;SDS011;14047;50.936;4.654;2022-10-13T07:59:20;18.17;;;8.02;;
26335;SDS011;14047;50.936;4.654;2022-10-13T08:01:46;17.13;;;8.73;;
26335;SDS011;14047;50.936;4.654;2022-10-13T08:04:11;15.25;;;8.57;;
26335;SDS011;14047;50.936;4.654;2022-10-13T08:06:37;22.35;;;8.38;;
26335;SDS011;14047;50.936;4.654;2022-10-13T08:09:03;18.58;;;8.35;;
26335;SDS011;14047;50.936;4.654;2022-10-13T08:11:29;20.55;;;9.77;;
26335;SDS011;14047;50.936;4.654;2022-10-13T08:13:56;15.43;;;7.93;;
26335;SDS011;14047;50.936;4.654;2022-10-13T08:16:26;20.85;;;8.77;;
26335;SDS011;14047;50.936;4.654;2022-10-13T08:18:52;19.88;;;8.85;;
26335;SDS011;14047;50.936;4.654;2022-10-13T08:21:18;24.48;;;9.18;;
26335;SDS011;14047;50.936;4.654;2022-10-13T08:23:46;18.58;;;8.75;;
26335;SDS011;14047;50.936;4.654;2022-10-13T08:26:17;21.73;;;9.50;;
26335;SDS011;14047;50.936;4.654;2022-10-13T08:28:45;16.67;;;8.95;;
26335;SDS011;14047;50.936;4.654;2022-10-13T08:31:11;21.67;;;7.57;;
26335;SDS011;14047;50.936;4.654;2022-10-13T08:33:36;18.33;;;8.27;;
26335;SDS011;14047;50.936;4.654;2022-10-13T08:36:02;19.65;;;8.40;;
26335;SDS011;14047;50.936;4.654;2022-10-13T08:38:28;22.40;;;8.45;;
26335;SDS011;14047;50.936;4.654;2022-10-13T08:40:53;16.95;;;7.60;;
26335;SDS011;14047;50.936;4.654;2022-10-13T08:43:20;21.10;;;8.45;;
26335;SDS011;14047;50.936;4.654;2022-10-13T08:45:51;12.60;;;7.35;;
26335;SDS011;14047;50.936;4.654;2022-10-13T08:48:23;19.95;;;7.70;;
26335;SDS011;14047;50.936;4.654;2022-10-13T08:50:54;23.00;;;8.93;;
26335;SDS011;14047;50.936;4.654;2022-10-13T08:56:08;31.58;;;9.80;;
26335;SDS011;14047;50.936;4.654;2022-10-13T08:58:35;17.27;;;7.20;;
26335;SDS011;14047;50.936;4.654;2022-10-13T09:01:11;15.45;;;7.80;;
26335;SDS011;14047;50.936;4.654;2022-10-13T09:06:14;17.05;;;7.05;;
26335;SDS011;14047;50.936;4.654;2022-10-13T09:11:26;18.63;;;7.13;;
26335;SDS011;14047;50.936;4.654;2022-10-13T09:13:57;16.42;;;7.00;;
26335;SDS011;14047;50.936;4.654;2022-10-13T09:16:26;14.38;;;7.78;;
26335;SDS011;14047;50.936;4.654;2022-10-13T09:21:48;17.35;;;7.07;;
26335;SDS011;14047;50.936;4.654;2022-10-13T09:24:19;16.52;;;6.82;;
26335;SDS011;14047;50.936;4.654;2022-10-13T09:26:47;13.15;;;7.18;;
26335;SDS011;14047;50.936;4.654;2022-10-13T09:29:19;17.33;;;6.72;;
26335;SDS011;14047;50.936;4.654;2022-10-13T09:31:49;17.90;;;7.03;;
26335;SDS011;14047;50.936;4.654;2022-10-13T09:36:54;13.25;;;7.20;;
26335;SDS011;14047;50.936;4.654;2022-10-13T09:39:23;20.40;;;7.55;;
26335;SDS011;14047;50.936;4.654;2022-10-13T09:41:50;14.93;;;7.47;;
26335;SDS011;14047;50.936;4.654;2022-10-13T09:44:34;18.83;;;8.27;;
26335;SDS011;14047;50.936;4.654;2022-10-13T09:47:00;16.50;;;7.57;;
26335;SDS011;14047;50.936;4.654;2022-10-13T09:49:43;18.77;;;7.95;;
26335;SDS011;14047;50.936;4.654;2022-10-13T09:59:44;15.75;;;7.07;;
26335;SDS011;14047;50.936;4.654;2022-10-13T10:04:59;14.80;;;8.07;;
26335;SDS011;14047;50.936;4.654;2022-10-13T10:07:30;15.60;;;7.85;;
26335;SDS011;14047;50.936;4.654;2022-10-13T10:09:58;15.63;;;7.75;;
26335;SDS011;14047;50.936;4.654;2022-10-13T10:12:29;15.45;;;7.03;;
26335;SDS011;14047;50.936;4.654;2022-10-13T10:15:00;17.30;;;7.28;;
26335;SDS011;14047;50.936;4.654;2022-10-13T10:17:39;13.75;;;7.25;;
26335;SDS011;14047;50.936;4.654;2022-10-13T10:23:25;16.38;;;7.38;;
26335;SDS011;14047;50.936;4.654;2022-10-13T10:26:04;22.88;;;7.18;;
26335;SDS011;14047;50.936;4.654;2022-10-13T10:28:46;14.93;;;6.93;;
26335;SDS011;14047;50.936;4.654;2022-10-13T10:34:33;17.75;;;7.00;;
26335;SDS011;14047;50.936;4.654;2022-10-13T10:37:21;15.90;;;7.10;;
26335;SDS011;14047;50.936;4.654;2022-10-13T10:40:20;18.70;;;7.60;;
26335;SDS011;14047;50.936;4.654;2022-10-13T10:43:40;15.50;;;7.00;;
26335;SDS011;14047;50.936;4.654;2022-10-13T10:45:48;14.30;;;6.32;;
26335;SDS011;14047;50.936;4.654;2022-10-13T10:48:19;13.80;;;6.75;;
26335;SDS011;14047;50.936;4.654;2022-10-13T10:50:48;23.00;;;7.22;;
26335;SDS011;14047;50.936;4.654;2022-10-13T10:59:05;18.58;;;7.10;;
26335;SDS011;14047;50.936;4.654;2022-10-13T11:07:12;19.38;;;9.48;;
26335;SDS011;14047;50.936;4.654;2022-10-13T11:12:26;20.83;;;9.48;;
26335;SDS011;14047;50.936;4.654;2022-10-13T11:15:56;14.57;;;8.82;;
26335;SDS011;14047;50.936;4.654;2022-10-13T11:21:10;25.55;;;10.38;;
26335;SDS011;14047;50.936;4.654;2022-10-13T11:23:35;18.77;;;10.10;;
26335;SDS011;14047;50.936;4.654;2022-10-13T11:28:49;14.02;;;8.48;;
26335;SDS011;14047;50.936;4.654;2022-10-13T11:31:22;24.27;;;9.18;;
26335;SDS011;14047;50.936;4.654;2022-10-13T11:33:51;18.13;;;9.73;;
26335;SDS011;14047;50.936;4.654;2022-10-13T11:39:08;17.30;;;9.55;;
26335;SDS011;14047;50.936;4.654;2022-10-13T11:50:26;19.48;;;9.60;;
26335;SDS011;14047;50.936;4.654;2022-10-13T11:53:32;22.25;;;10.38;;
26335;SDS011;14047;50.936;4.654;2022-10-13T11:55:56;19.80;;;10.68;;
26335;SDS011;14047;50.936;4.654;2022-10-13T11:58:24;20.83;;;9.68;;
26335;SDS011;14047;50.936;4.654;2022-10-13T12:01:09;19.75;;;10.43;;
26335;SDS011;14047;50.936;4.654;2022-10-13T12:03:38;15.95;;;9.77;;
26335;SDS011;14047;50.936;4.654;2022-10-13T12:08:40;22.50;;;10.98;;
26335;SDS011;14047;50.936;4.654;2022-10-13T12:11:14;18.00;;;9.90;;
26335;SDS011;14047;50.936;4.654;2022-10-13T12:13:51;19.05;;;10.18;;
26335;SDS011;14047;50.936;4.654;2022-10-13T12:16:17;17.38;;;9.75;;
26335;SDS011;14047;50.936;4.654;2022-10-13T12:18:43;16.80;;;10.38;;
26335;SDS011;14047;50.936;4.654;2022-10-13T12:21:13;22.75;;;9.68;;
26335;SDS011;14047;50.936;4.654;2022-10-13T12:23:43;21.83;;;9.48;;
26335;SDS011;14047;50.936;4.654;2022-10-13T12:26:16;20.48;;;9.93;;
26335;SDS011;14047;50.936;4.654;2022-10-13T12:28:58;19.65;;;9.60;;
26335;SDS011;14047;50.936;4.654;2022-10-13T12:31:27;16.10;;;9.30;;
26335;SDS011;14047;50.936;4.654;2022-10-13T12:33:56;15.48;;;9.65;;
26335;SDS011;14047;50.936;4.654;2022-10-13T12:38:55;20.98;;;9.02;;
26335;SDS011;14047;50.936;4.654;2022-10-13T12:41:25;16.67;;;9.90;;
26335;SDS011;14047;50.936;4.654;2022-10-13T12:43:53;12.55;;;8.73;;
26335;SDS011;14047;50.936;4.654;2022-10-13T12:49:04;23.15;;;9.27;;
26335;SDS011;14047;50.936;4.654;2022-10-13T12:51:48;18.63;;;9.45;;
26335;SDS011;14047;50.936;4.654;2022-10-13T12:54:23;21.27;;;9.80;;
26335;SDS011;14047;50.936;4.654;2022-10-13T12:56:52;22.23;;;9.75;;
26335;SDS011;14047;50.936;4.654;2022-10-13T12:59:21;17.35;;;9.50;;
26335;SDS011;14047;50.936;4.654;2022-10-13T13:01:52;20.15;;;9.10;;
26335;SDS011;14047;50.936;4.654;2022-10-13T13:14:51;25.00;;;11.00;;
26335;SDS011;14047;50.936;4.654;2022-10-13T13:19:48;21.33;;;10.32;;
26335;SDS011;14047;50.936;4.654;2022-10-13T13:22:15;28.83;;;12.20;;
26335;SDS011;14047;50.936;4.654;2022-10-13T13:24:41;23.25;;;11.45;;
26335;SDS011;14047;50.936;4.654;2022-10-13T13:27:22;21.95;;;11.60;;
26335;SDS011;14047;50.936;4.654;2022-10-13T13:29:53;24.25;;;11.63;;
26335;SDS011;14047;50.936;4.654;2022-10-13T13:32:20;21.00;;;11.40;;
26335;SDS011;14047;50.936;4.654;2022-10-13T13:34:47;21.17;;;11.95;;
26335;SDS011;14047;50.936;4.654;2022-10-13T13:37:22;21.17;;;11.02;;
26335;SDS011;14047;50.936;4.654;2022-10-13T13:39:51;21.40;;;11.60;;
26335;SDS011;14047;50.936;4.654;2022-10-13T13:42:17;22.73;;;11.38;;
26335;SDS011;14047;50.936;4.654;2022-10-13T13:44:43;25.00;;;12.13;;
26335;SDS011;14047;50.936;4.654;2022-10-13T13:47:18;30.23;;;13.00;;
26335;SDS011;14047;50.936;4.654;2022-10-13T13:49:46;30.15;;;13.30;;
26335;SDS011;14047;50.936;4.654;2022-10-13T13:52:13;23.80;;;13.82;;
26335;SDS011;14047;50.936;4.654;2022-10-13T13:54:39;28.70;;;15.38;;
26335;SDS011;14047;50.936;4.654;2022-10-13T13:57:04;24.33;;;14.88;;
26335;SDS011;14047;50.936;4.654;2022-10-13T13:59:30;32.63;;;14.82;;
26335;SDS011;14047;50.936;4.654;2022-10-13T14:01:56;27.77;;;15.32;;
26335;SDS011;14047;50.936;4.654;2022-10-13T14:04:22;24.75;;;15.57;;
26335;SDS011;14047;50.936;4.654;2022-10-13T14:06:47;34.42;;;16.67;;
26335;SDS011;14047;50.936;4.654;2022-10-13T14:09:13;30.63;;;16.52;;
26335;SDS011;14047;50.936;4.654;2022-10-13T14:11:38;29.35;;;15.85;;
26335;SDS011;14047;50.936;4.654;2022-10-13T14:14:04;37.35;;;17.38;;
26335;SDS011;14047;50.936;4.654;2022-10-13T14:16:30;28.88;;;16.05;;
26335;SDS011;14047;50.936;4.654;2022-10-13T14:18:55;29.95;;;17.23;;
26335;SDS011;14047;50.936;4.654;2022-10-13T14:21:21;34.15;;;17.25;;
26335;SDS011;14047;50.936;4.654;2022-10-13T14:23:47;24.83;;;16.05;;
26335;SDS011;14047;50.936;4.654;2022-10-13T14:26:13;26.15;;;16.23;;
26335;SDS011;14047;50.936;4.654;2022-10-13T14:28:39;27.02;;;15.43;;
26335;SDS011;14047;50.936;4.654;2022-10-13T14:31:06;26.08;;;16.02;;
26335;SDS011;14047;50.936;4.654;2022-10-13T14:33:32;28.38;;;15.65;;
26335;SDS011;14047;50.936;4.654;2022-10-13T14:35:58;28.38;;;15.32;;
26335;SDS011;14047;50.936;4.654;2022-10-13T14:38:25;28.40;;;15.43;;
26335;SDS011;14047;50.936;4.654;2022-10-13T14:40:51;27.08;;;14.68;;
26335;SDS011;14047;50.936;4.654;2022-10-13T14:43:16;20.83;;;14.00;;
26335;SDS011;14047;50.936;4.654;2022-10-13T14:45:42;23.25;;;13.15;;
26335;SDS011;14047;50.936;4.654;2022-10-13T14:48:07;20.13;;;12.98;;
26335;SDS011;14047;50.936;4.654;2022-10-13T14:50:36;19.13;;;12.43;;
26335;SDS011;14047;50.936;4.654;2022-10-13T14:53:02;20.48;;;12.77;;
26335;SDS011;14047;50.936;4.654;2022-10-13T14:55:27;21.10;;;12.30;;
26335;SDS011;14047;50.936;4.654;2022-10-13T14:57:54;23.45;;;11.77;;
26335;SDS011;14047;50.936;4.654;2022-10-13T15:00:20;18.50;;;12.18;;
26335;SDS011;14047;50.936;4.654;2022-10-13T15:02:46;21.58;;;11.77;;
26335;SDS011;14047;50.936;4.654;2022-10-13T15:05:11;17.50;;;11.70;;
26335;SDS011;14047;50.936;4.654;2022-10-13T15:07:37;19.63;;;11.70;;
26335;SDS011;14047;50.936;4.654;2022-10-13T15:10:03;32.40;;;16.55;;
26335;SDS011;14047;50.936;4.654;2022-10-13T15:12:29;22.17;;;13.57;;
26335;SDS011;14047;50.936;4.654;2022-10-13T15:14:55;20.30;;;11.77;;
26335;SDS011;14047;50.936;4.654;2022-10-13T15:17:21;25.67;;;14.65;;
26335;SDS011;14047;50.936;4.654;2022-10-13T15:19:46;18.65;;;11.55;;
26335;SDS011;14047;50.936;4.654;2022-10-13T15:22:12;17.67;;;11.52;;
26335;SDS011;14047;50.936;4.654;2022-10-13T15:24:38;22.55;;;11.25;;
26335;SDS011;14047;50.936;4.654;2022-10-13T15:27:03;17.38;;;10.75;;
26335;SDS011;14047;50.936;4.654;2022-10-13T15:29:29;17.67;;;10.35;;
26335;SDS011;14047;50.936;4.654;2022-10-13T15:32:05;23.30;;;11.75;;
26335;SDS011;14047;50.936;4.654;2022-10-13T15:34:36;21.88;;;11.02;;
26335;SDS011;14047;50.936;4.654;2022-10-13T15:37:05;19.20;;;10.93;;
26335;SDS011;14047;50.936;4.654;2022-10-13T15:39:31;20.10;;;10.68;;
26335;SDS011;14047;50.936;4.654;2022-10-13T15:41:57;22.55;;;11.20;;
26335;SDS011;14047;50.936;4.654;2022-10-13T15:44:25;23.48;;;10.68;;
26335;SDS011;14047;50.936;4.654;2022-10-13T15:46:51;17.80;;;11.10;;
26335;SDS011;14047;50.936;4.654;2022-10-13T15:49:21;16.77;;;9.38;;
26335;SDS011;14047;50.936;4.654;2022-10-13T15:51:50;14.35;;;8.57;;
26335;SDS011;14047;50.936;4.654;2022-10-13T15:54:16;14.30;;;8.10;;
26335;SDS011;14047;50.936;4.654;2022-10-13T15:56:42;13.18;;;7.68;;
26335;SDS011;14047;50.936;4.654;2022-10-13T15:59:08;11.80;;;7.65;;
26335;SDS011;14047;50.936;4.654;2022-10-13T16:01:34;10.75;;;7.10;;
26335;SDS011;14047;50.936;4.654;2022-10-13T16:04:00;9.98;;;5.93;;
26335;SDS011;14047;50.936;4.654;2022-10-13T16:06:26;8.77;;;6.30;;
26335;SDS011;14047;50.936;4.654;2022-10-13T16:08:52;9.23;;;5.47;;
26335;SDS011;14047;50.936;4.654;2022-10-13T16:11:18;10.60;;;5.72;;
26335;SDS011;14047;50.936;4.654;2022-10-13T16:13:46;8.43;;;5.65;;
26335;SDS011;14047;50.936;4.654;2022-10-13T16:16:13;12.43;;;6.00;;
26335;SDS011;14047;50.936;4.654;2022-10-13T16:18:40;8.27;;;5.35;;
26335;SDS011;14047;50.936;4.654;2022-10-13T16:21:06;7.95;;;4.97;;
26335;SDS011;14047;50.936;4.654;2022-10-13T16:23:33;8.32;;;4.78;;
26335;SDS011;14047;50.936;4.654;2022-10-13T16:26:00;11.95;;;4.68;;
26335;SDS011;14047;50.936;4.654;2022-10-13T16:28:26;11.50;;;6.07;;